createdAt,value
2019-01-04T00:00:32.412Z,337
2019-01-04T00:01:39.326Z,337
2019-01-04T00:02:46.525Z,336
2019-01-04T00:03:53.723Z,336
2019-01-04T00:05:00.917Z,336
2019-01-04T00:06:08.117Z,336
2019-01-04T00:07:15.316Z,336
2019-01-04T00:08:22.509Z,336
2019-01-04T00:09:29.705Z,336
2019-01-04T00:10:36.624Z,337
2019-01-04T00:11:43.822Z,336
2019-01-04T00:12:50.740Z,336
2019-01-04T00:13:57.945Z,336
2019-01-04T00:15:04.861Z,336
2019-01-04T00:16:12.052Z,336
2019-01-04T00:17:19.367Z,335
2019-01-04T00:18:26.281Z,335
2019-01-04T00:19:33.472Z,336
2019-01-04T00:20:40.663Z,335
2019-01-04T00:21:47.872Z,335
2019-01-04T00:22:55.048Z,334
2019-01-04T00:24:02.245Z,334
2019-01-04T00:25:09.440Z,333
2019-01-04T00:26:16.644Z,334
2019-01-04T00:27:23.835Z,333
2019-01-04T00:28:31.039Z,333
2019-01-04T00:29:38.230Z,333
2019-01-04T00:30:45.423Z,333
2019-01-04T00:31:52.647Z,333
2019-01-04T00:32:59.839Z,333
2019-01-04T00:34:07.033Z,333
2019-01-04T00:35:14.224Z,333
2019-01-04T00:36:21.416Z,333
2019-01-04T00:37:28.608Z,334
2019-01-04T00:38:35.255Z,333
2019-01-04T00:39:42.173Z,333
2019-01-04T00:40:49.367Z,334
2019-01-04T00:41:56.557Z,334
2019-01-04T00:43:03.746Z,334
2019-01-04T00:44:10.963Z,333
2019-01-04T00:45:18.157Z,333
2019-01-04T00:46:25.350Z,333
2019-01-04T00:47:32.276Z,333
2019-01-04T00:48:39.465Z,333
2019-01-04T00:49:46.654Z,333
2019-01-04T00:50:53.576Z,333
2019-01-04T00:52:00.772Z,333
2019-01-04T00:53:07.969Z,333
2019-01-04T00:54:15.160Z,333
2019-01-04T00:55:22.357Z,334
2019-01-04T00:56:29.550Z,335
2019-01-04T00:57:36.736Z,334
2019-01-04T00:58:43.934Z,334
2019-01-04T00:59:50.851Z,334
2019-01-04T01:00:58.046Z,334
2019-01-04T01:02:04.970Z,334
2019-01-04T01:03:12.163Z,334
2019-01-04T01:04:19.351Z,333
2019-01-04T01:05:26.547Z,333
2019-01-04T01:06:33.743Z,333
2019-01-04T01:07:40.938Z,334
2019-01-04T01:08:47.863Z,333
2019-01-04T01:09:55.052Z,333
2019-01-04T01:11:01.980Z,333
2019-01-04T01:12:09.169Z,333
2019-01-04T01:13:16.359Z,332
2019-01-04T01:14:23.549Z,333
2019-01-04T01:15:30.741Z,333
2019-01-04T01:16:37.932Z,334
2019-01-04T01:17:44.854Z,333
2019-01-04T01:18:52.046Z,334
2019-01-04T01:19:58.962Z,334
2019-01-04T01:21:06.153Z,334
2019-01-04T01:22:13.343Z,334
2019-01-04T01:23:20.534Z,333
2019-01-04T01:24:27.449Z,334
2019-01-04T01:25:34.642Z,334
2019-01-04T01:26:41.839Z,334
2019-01-04T01:27:49.035Z,333
2019-01-04T01:28:56.228Z,334
2019-01-04T01:30:03.427Z,333
2019-01-04T01:31:10.613Z,334
2019-01-04T01:32:17.809Z,334
2019-01-04T01:33:24.767Z,334
2019-01-04T01:34:32.006Z,334
2019-01-04T01:35:39.192Z,334
2019-01-04T01:36:46.390Z,334
2019-01-04T01:37:53.582Z,334
2019-01-04T01:39:00.776Z,334
2019-01-04T01:40:07.968Z,334
2019-01-04T01:41:14.888Z,334
2019-01-04T01:42:22.086Z,334
2019-01-04T01:43:29.003Z,334
2019-01-04T01:44:35.923Z,334
2019-01-04T01:45:43.112Z,333
2019-01-04T01:46:50.350Z,333
2019-01-04T01:47:57.529Z,333
2019-01-04T01:49:04.720Z,334
2019-01-04T01:50:11.641Z,333
2019-01-04T01:51:18.837Z,333
2019-01-04T01:52:26.034Z,333
2019-01-04T01:53:32.950Z,334
2019-01-04T01:54:40.147Z,333
2019-01-04T01:55:47.336Z,334
2019-01-04T01:56:54.270Z,334
2019-01-04T01:58:01.667Z,334
2019-01-04T01:59:08.589Z,334
2019-01-04T02:00:15.499Z,333
2019-01-04T02:01:22.420Z,333
2019-01-04T02:02:29.609Z,334
2019-01-04T02:03:36.801Z,333
2019-01-04T02:04:43.720Z,334
2019-01-04T02:05:50.639Z,333
2019-01-04T02:06:57.831Z,333
2019-01-04T02:08:04.753Z,332
2019-01-04T02:09:11.944Z,333
2019-01-04T02:10:18.862Z,333
2019-01-04T02:11:26.054Z,332
2019-01-04T02:12:33.248Z,332
2019-01-04T02:13:40.440Z,333
2019-01-04T02:14:47.637Z,332
2019-01-04T02:15:54.830Z,333
2019-01-04T02:17:02.019Z,332
2019-01-04T02:18:09.213Z,333
2019-01-04T02:19:16.399Z,332
2019-01-04T02:20:23.589Z,332
2019-01-04T02:21:30.816Z,333
2019-01-04T02:22:37.732Z,332
2019-01-04T02:23:44.376Z,333
2019-01-04T02:24:51.566Z,332
2019-01-04T02:25:58.759Z,333
2019-01-04T02:27:05.954Z,332
2019-01-04T02:28:13.150Z,332
2019-01-04T02:29:20.341Z,332
2019-01-04T02:30:27.529Z,332
2019-01-04T02:31:34.722Z,332
2019-01-04T02:32:41.913Z,332
2019-01-04T02:33:49.104Z,331
2019-01-04T02:34:56.297Z,331
2019-01-04T02:36:03.487Z,332
2019-01-04T02:37:10.683Z,332
2019-01-04T02:38:17.873Z,331
2019-01-04T02:39:25.064Z,332
2019-01-04T02:40:31.986Z,332
2019-01-04T02:41:39.175Z,331
2019-01-04T02:42:46.391Z,331
2019-01-04T02:43:53.568Z,331
2019-01-04T02:45:00.869Z,331
2019-01-04T02:46:08.103Z,330
2019-01-04T02:47:15.292Z,330
2019-01-04T02:48:22.478Z,330
2019-01-04T02:49:29.670Z,330
2019-01-04T02:50:36.863Z,330
2019-01-04T02:51:43.779Z,330
2019-01-04T02:52:50.700Z,329
2019-01-04T02:53:57.901Z,329
2019-01-04T02:55:04.815Z,330
2019-01-04T02:56:11.459Z,329
2019-01-04T02:57:18.652Z,330
2019-01-04T02:58:25.566Z,330
2019-01-04T02:59:32.758Z,330
2019-01-04T03:00:39.946Z,331
2019-01-04T03:01:47.136Z,330
2019-01-04T03:02:54.338Z,330
2019-01-04T03:04:01.526Z,330
2019-01-04T03:05:08.729Z,330
2019-01-04T03:06:15.918Z,330
2019-01-04T03:07:23.103Z,330
2019-01-04T03:08:30.018Z,330
2019-01-04T03:09:37.211Z,330
2019-01-04T03:10:44.133Z,330
2019-01-04T03:11:51.323Z,330
2019-01-04T03:12:58.515Z,330
2019-01-04T03:14:05.710Z,330
2019-01-04T03:15:12.628Z,330
2019-01-04T03:16:19.814Z,330
2019-01-04T03:17:27.005Z,329
2019-01-04T03:18:34.193Z,329
2019-01-04T03:19:41.118Z,330
2019-01-04T03:20:47.497Z,329
2019-01-04T03:21:54.687Z,329
2019-01-04T03:23:01.876Z,328
2019-01-04T03:24:09.066Z,329
2019-01-04T03:25:16.265Z,329
2019-01-04T03:26:23.455Z,329
2019-01-04T03:27:30.648Z,329
2019-01-04T03:28:37.841Z,328
2019-01-04T03:29:45.037Z,329
2019-01-04T03:30:54.227Z,329
2019-01-04T03:32:01.533Z,328
2019-01-04T03:33:08.730Z,329
2019-01-04T03:34:15.915Z,329
2019-01-04T03:35:22.836Z,329
2019-01-04T03:36:30.034Z,328
2019-01-04T03:37:37.221Z,328
2019-01-04T03:38:44.409Z,329
2019-01-04T03:39:51.601Z,328
2019-01-04T03:40:58.796Z,329
2019-01-04T03:42:05.980Z,328
2019-01-04T03:43:13.174Z,329
2019-01-04T03:44:20.363Z,330
2019-01-04T03:45:27.555Z,329
2019-01-04T03:46:34.476Z,329
2019-01-04T03:47:41.670Z,329
2019-01-04T03:48:48.862Z,329
2019-01-04T03:49:55.773Z,329
2019-01-04T03:51:02.964Z,328
2019-01-04T03:52:10.157Z,328
2019-01-04T03:53:17.348Z,329
2019-01-04T03:54:24.543Z,328
2019-01-04T03:55:31.734Z,328
2019-01-04T03:56:38.707Z,328
2019-01-04T03:57:45.900Z,329
2019-01-04T03:58:53.096Z,329
2019-01-04T03:59:59.747Z,329
2019-01-04T04:01:06.665Z,329
2019-01-04T04:02:13.858Z,329
2019-01-04T04:03:20.504Z,328
2019-01-04T04:04:27.696Z,329
2019-01-04T04:05:34.893Z,329
2019-01-04T04:06:42.081Z,329
2019-01-04T04:07:49.278Z,330
2019-01-04T04:08:56.470Z,331
2019-01-04T04:10:03.664Z,331
2019-01-04T04:11:10.590Z,331
2019-01-04T04:12:17.515Z,331
2019-01-04T04:13:24.709Z,331
2019-01-04T04:14:31.903Z,332
2019-01-04T04:15:39.093Z,331
2019-01-04T04:16:46.283Z,331
2019-01-04T04:17:53.207Z,331
2019-01-04T04:19:00.396Z,331
2019-01-04T04:20:07.588Z,331
2019-01-04T04:21:14.783Z,331
2019-01-04T04:22:21.978Z,331
2019-01-04T04:23:29.166Z,330
2019-01-04T04:24:35.814Z,330
2019-01-04T04:25:43.004Z,330
2019-01-04T04:26:49.658Z,330
2019-01-04T04:27:56.845Z,330
2019-01-04T04:29:04.076Z,330
2019-01-04T04:30:11.268Z,330
2019-01-04T04:31:18.186Z,330
2019-01-04T04:32:25.397Z,329
2019-01-04T04:33:32.588Z,329
2019-01-04T04:34:39.515Z,329
2019-01-04T04:35:46.435Z,330
2019-01-04T04:36:53.627Z,330
2019-01-04T04:38:00.815Z,330
2019-01-04T04:39:08.008Z,329
2019-01-04T04:40:15.259Z,330
2019-01-04T04:41:22.442Z,329
2019-01-04T04:42:29.642Z,329
2019-01-04T04:43:51.479Z,329
2019-01-04T04:44:58.705Z,330
2019-01-04T04:46:05.881Z,330
2019-01-04T04:47:12.804Z,330
2019-01-04T04:48:19.990Z,329
2019-01-04T04:49:27.184Z,330
2019-01-04T04:50:34.375Z,329
2019-01-04T04:51:41.297Z,330
2019-01-04T04:52:48.506Z,329
2019-01-04T04:53:55.680Z,329
2019-01-04T04:55:02.871Z,329
2019-01-04T04:56:10.062Z,329
2019-01-04T04:57:17.254Z,329
2019-01-04T04:58:24.446Z,329
2019-01-04T04:59:31.639Z,329
2019-01-04T05:00:38.832Z,329
2019-01-04T05:01:46.022Z,329
2019-01-04T05:02:53.214Z,329
2019-01-04T05:04:00.407Z,329
2019-01-04T05:05:07.654Z,328
2019-01-04T05:06:14.845Z,329
2019-01-04T05:07:21.493Z,328
2019-01-04T05:08:28.420Z,329
2019-01-04T05:09:35.619Z,328
2019-01-04T05:10:42.809Z,329
2019-01-04T05:11:50.002Z,328
2019-01-04T05:12:57.210Z,330
2019-01-04T05:14:04.131Z,329
2019-01-04T05:15:11.321Z,329
2019-01-04T05:16:18.512Z,328
2019-01-04T05:17:25.703Z,329
2019-01-04T05:18:32.897Z,328
2019-01-04T05:19:40.095Z,328
2019-01-04T05:20:47.290Z,329
2019-01-04T05:21:54.479Z,330
2019-01-04T05:23:01.678Z,329
2019-01-04T05:24:08.872Z,328
2019-01-04T05:25:16.062Z,329
2019-01-04T05:26:23.253Z,328
2019-01-04T05:27:30.453Z,328
2019-01-04T05:28:37.646Z,327
2019-01-04T05:29:44.844Z,328
2019-01-04T05:30:52.036Z,327
2019-01-04T05:31:58.955Z,328
2019-01-04T05:33:06.146Z,328
2019-01-04T05:34:13.339Z,328
2019-01-04T05:35:20.530Z,328
2019-01-04T05:36:27.720Z,328
2019-01-04T05:37:34.912Z,329
2019-01-04T05:38:42.106Z,329
2019-01-04T05:39:49.025Z,328
2019-01-04T05:40:55.946Z,329
2019-01-04T05:42:03.150Z,329
2019-01-04T05:43:10.331Z,328
2019-01-04T05:44:17.519Z,328
2019-01-04T05:45:24.439Z,329
2019-01-04T05:46:31.632Z,328
2019-01-04T05:47:38.277Z,328
2019-01-04T05:48:45.475Z,328
2019-01-04T05:49:52.674Z,328
2019-01-04T05:50:59.863Z,328
2019-01-04T05:52:07.068Z,328
2019-01-04T05:53:14.258Z,328
2019-01-04T05:54:21.478Z,327
2019-01-04T05:55:28.671Z,328
2019-01-04T05:56:35.869Z,328
2019-01-04T05:57:42.795Z,328
2019-01-04T05:58:49.718Z,327
2019-01-04T05:59:56.918Z,327
2019-01-04T06:01:04.116Z,328
2019-01-04T06:02:11.038Z,328
2019-01-04T06:03:17.973Z,328
2019-01-04T06:04:24.891Z,327
2019-01-04T06:05:32.117Z,328
2019-01-04T06:06:39.318Z,327
2019-01-04T06:07:46.243Z,327
2019-01-04T06:08:53.179Z,327
2019-01-04T06:10:00.164Z,327
2019-01-04T06:11:07.357Z,327
2019-01-04T06:12:14.276Z,327
2019-01-04T06:13:21.200Z,328
2019-01-04T06:14:28.128Z,327
2019-01-04T06:15:35.047Z,327
2019-01-04T06:16:41.964Z,327
2019-01-04T06:17:49.163Z,327
2019-01-04T06:18:56.364Z,327
2019-01-04T06:20:03.553Z,327
2019-01-04T06:21:10.744Z,327
2019-01-04T06:22:17.940Z,327
2019-01-04T06:23:25.128Z,327
2019-01-04T06:24:32.319Z,326
2019-01-04T06:25:39.515Z,327
2019-01-04T06:26:46.707Z,327
2019-01-04T06:27:53.902Z,326
2019-01-04T06:29:01.096Z,326
2019-01-04T06:30:08.287Z,326
2019-01-04T06:31:15.492Z,327
2019-01-04T06:32:22.679Z,326
2019-01-04T06:33:29.888Z,326
2019-01-04T06:34:51.726Z,326
2019-01-04T06:35:58.935Z,325
2019-01-04T06:37:05.853Z,326
2019-01-04T06:38:13.047Z,326
2019-01-04T06:39:19.972Z,326
2019-01-04T06:40:26.890Z,326
2019-01-04T06:41:34.079Z,326
2019-01-04T06:42:41.270Z,326
2019-01-04T06:43:48.465Z,326
2019-01-04T06:44:55.663Z,326
2019-01-04T06:46:02.850Z,325
2019-01-04T06:47:10.040Z,325
2019-01-04T06:48:17.239Z,325
2019-01-04T06:49:24.436Z,325
2019-01-04T06:50:31.639Z,326
2019-01-04T06:51:38.837Z,326
2019-01-04T06:52:46.033Z,326
2019-01-04T06:53:52.680Z,327
2019-01-04T06:54:59.874Z,326
2019-01-04T06:56:07.073Z,327
2019-01-04T06:57:14.265Z,326
2019-01-04T06:58:21.456Z,326
2019-01-04T06:59:28.655Z,326
2019-01-04T07:00:35.726Z,326
2019-01-04T07:01:42.923Z,326
2019-01-04T07:02:50.120Z,326
2019-01-04T07:03:57.039Z,325
2019-01-04T07:05:04.232Z,326
2019-01-04T07:06:11.429Z,326
2019-01-04T07:07:18.622Z,326
2019-01-04T07:08:25.819Z,326
2019-01-04T07:09:32.744Z,326
2019-01-04T07:10:39.938Z,326
2019-01-04T07:11:47.924Z,326
2019-01-04T07:12:55.114Z,326
2019-01-04T07:14:02.313Z,325
2019-01-04T07:15:09.235Z,325
2019-01-04T07:16:16.425Z,326
2019-01-04T07:17:23.339Z,326
2019-01-04T07:18:30.260Z,325
2019-01-04T07:19:37.449Z,326
2019-01-04T07:20:44.637Z,326
2019-01-04T07:21:51.830Z,325
2019-01-04T07:22:59.019Z,325
2019-01-04T07:24:06.212Z,326
2019-01-04T07:25:13.406Z,325
2019-01-04T07:26:20.601Z,326
2019-01-04T07:27:27.795Z,325
2019-01-04T07:28:34.988Z,326
2019-01-04T07:29:42.187Z,325
2019-01-04T07:30:49.114Z,325
2019-01-04T07:31:56.304Z,325
2019-01-04T07:33:03.494Z,325
2019-01-04T07:34:10.687Z,324
2019-01-04T07:35:17.877Z,324
2019-01-04T07:36:24.794Z,324
2019-01-04T07:37:31.991Z,325
2019-01-04T07:38:38.921Z,324
2019-01-04T07:39:46.123Z,324
2019-01-04T07:40:53.316Z,324
2019-01-04T07:42:00.507Z,323
2019-01-04T07:43:07.708Z,324
2019-01-04T07:44:14.618Z,324
2019-01-04T07:45:21.815Z,324
2019-01-04T07:46:29.008Z,323
2019-01-04T07:47:36.202Z,324
2019-01-04T07:48:42.844Z,323
2019-01-04T07:49:50.035Z,323
2019-01-04T07:50:57.224Z,323
2019-01-04T07:52:04.414Z,322
2019-01-04T07:53:11.604Z,321
2019-01-04T07:54:18.797Z,323
2019-01-04T07:55:25.988Z,322
2019-01-04T07:56:33.177Z,321
2019-01-04T07:57:40.367Z,322
2019-01-04T07:58:47.562Z,322
2019-01-04T07:59:54.782Z,321
2019-01-04T08:01:01.683Z,321
2019-01-04T08:02:08.874Z,321
2019-01-04T08:03:16.063Z,321
2019-01-04T08:04:23.260Z,321
2019-01-04T08:05:30.453Z,320
2019-01-04T08:06:37.642Z,321
2019-01-04T08:07:44.837Z,320
2019-01-04T08:08:52.022Z,320
2019-01-04T08:09:59.258Z,320
2019-01-04T08:11:06.457Z,320
2019-01-04T08:12:13.375Z,320
2019-01-04T08:13:20.566Z,320
2019-01-04T08:14:27.759Z,319
2019-01-04T08:15:34.952Z,320
2019-01-04T08:16:42.143Z,319
2019-01-04T08:17:49.334Z,319
2019-01-04T08:18:56.526Z,320
2019-01-04T08:20:03.718Z,319
2019-01-04T08:21:10.631Z,319
2019-01-04T08:22:17.557Z,319
2019-01-04T08:23:24.749Z,319
2019-01-04T08:24:31.943Z,319
2019-01-04T08:25:39.134Z,318
2019-01-04T08:26:46.328Z,318
2019-01-04T08:27:53.521Z,318
2019-01-04T08:29:00.707Z,318
2019-01-04T08:30:07.908Z,317
2019-01-04T08:31:15.098Z,317
2019-01-04T08:32:22.298Z,317
2019-01-04T08:33:29.490Z,317
2019-01-04T08:34:36.408Z,316
2019-01-04T08:35:43.619Z,316
2019-01-04T08:36:50.813Z,316
2019-01-04T08:37:58.002Z,316
2019-01-04T08:39:04.922Z,316
2019-01-04T08:40:12.118Z,316
2019-01-04T08:41:19.036Z,316
2019-01-04T08:42:26.226Z,316
2019-01-04T08:43:33.417Z,316
2019-01-04T08:44:40.333Z,316
2019-01-04T08:45:47.519Z,316
2019-01-04T08:46:54.936Z,316
2019-01-04T08:48:02.135Z,316
2019-01-04T08:49:08.780Z,316
2019-01-04T08:50:15.962Z,317
2019-01-04T08:51:24.247Z,317
2019-01-04T08:52:31.170Z,317
2019-01-04T08:53:38.361Z,316
2019-01-04T08:54:45.558Z,317
2019-01-04T08:55:52.751Z,317
2019-01-04T08:56:59.945Z,316
2019-01-04T08:58:07.138Z,317
2019-01-04T08:59:14.334Z,317
2019-01-04T09:00:21.255Z,316
2019-01-04T09:01:28.447Z,316
2019-01-04T09:02:35.666Z,316
2019-01-04T09:03:42.855Z,316
2019-01-04T09:04:49.780Z,316
2019-01-04T09:05:56.965Z,316
2019-01-04T09:07:04.153Z,316
2019-01-04T09:08:11.348Z,317
2019-01-04T09:09:18.540Z,316
2019-01-04T09:10:25.740Z,317
2019-01-04T09:11:32.665Z,317
2019-01-04T09:12:39.860Z,316
2019-01-04T09:13:47.052Z,315
2019-01-04T09:14:54.239Z,316
2019-01-04T09:16:01.432Z,316
2019-01-04T09:17:08.618Z,316
2019-01-04T09:18:15.807Z,316
2019-01-04T09:19:23.004Z,315
2019-01-04T09:20:29.924Z,316
2019-01-04T09:21:37.122Z,316
2019-01-04T09:22:44.315Z,316
2019-01-04T09:23:51.235Z,315
2019-01-04T09:24:58.429Z,315
2019-01-04T09:26:05.625Z,315
2019-01-04T09:27:12.542Z,316
2019-01-04T09:28:19.761Z,316
2019-01-04T09:29:26.686Z,316
2019-01-04T09:30:33.606Z,317
2019-01-04T09:31:40.795Z,315
2019-01-04T09:32:47.994Z,317
2019-01-04T09:33:54.903Z,316
2019-01-04T09:35:02.101Z,317
2019-01-04T09:36:08.772Z,317
2019-01-04T09:37:15.691Z,317
2019-01-04T09:38:22.888Z,317
2019-01-04T09:39:29.807Z,317
2019-01-04T09:40:36.731Z,316
2019-01-04T09:41:43.378Z,317
2019-01-04T09:42:50.572Z,316
2019-01-04T09:43:57.489Z,316
2019-01-04T09:45:04.418Z,316
2019-01-04T09:46:11.609Z,316
2019-01-04T09:47:18.800Z,315
2019-01-04T09:48:25.998Z,315
2019-01-04T09:49:33.186Z,316
2019-01-04T09:50:40.377Z,315
2019-01-04T09:51:47.579Z,315
2019-01-04T09:52:54.509Z,314
2019-01-04T09:54:01.710Z,315
2019-01-04T09:55:08.899Z,314
2019-01-04T09:56:16.093Z,315
2019-01-04T09:57:24.633Z,315
2019-01-04T09:58:31.813Z,314
2019-01-04T09:59:38.734Z,314
2019-01-04T10:00:45.657Z,315
2019-01-04T10:01:52.861Z,314
2019-01-04T10:03:00.054Z,314
2019-01-04T10:04:07.245Z,314
2019-01-04T10:05:14.179Z,313
2019-01-04T10:06:21.374Z,313
2019-01-04T10:07:28.781Z,313
2019-01-04T10:08:35.975Z,313
2019-01-04T10:09:57.543Z,313
2019-01-04T10:11:04.733Z,313
2019-01-04T10:12:11.929Z,314
2019-01-04T10:13:19.129Z,313
2019-01-04T10:14:26.323Z,312
2019-01-04T10:15:33.521Z,313
2019-01-04T10:16:40.714Z,313
2019-01-04T10:17:47.903Z,312
2019-01-04T10:18:54.823Z,312
2019-01-04T10:20:02.018Z,312
2019-01-04T10:21:08.943Z,313
2019-01-04T10:22:16.140Z,312
2019-01-04T10:23:23.335Z,311
2019-01-04T10:24:30.260Z,312
2019-01-04T10:25:37.456Z,312
2019-01-04T10:26:44.382Z,311
2019-01-04T10:27:51.580Z,312
2019-01-04T10:28:58.779Z,312
2019-01-04T10:30:05.968Z,312
2019-01-04T10:31:12.891Z,310
2019-01-04T10:32:20.090Z,310
2019-01-04T10:33:27.018Z,310
2019-01-04T10:34:34.220Z,310
2019-01-04T10:35:41.414Z,309
2019-01-04T10:36:48.612Z,308
2019-01-04T10:37:55.802Z,309
2019-01-04T10:39:02.996Z,309
2019-01-04T10:40:12.218Z,308
2019-01-04T10:41:19.420Z,309
2019-01-04T10:42:26.347Z,308
2019-01-04T10:43:33.278Z,308
2019-01-04T10:44:40.201Z,304
2019-01-04T10:45:47.403Z,304
2019-01-04T10:46:54.082Z,306
2019-01-04T10:48:01.002Z,308
2019-01-04T10:49:08.205Z,308
2019-01-04T10:50:15.404Z,310
2019-01-04T10:51:22.609Z,308
2019-01-04T10:52:29.804Z,306
2019-01-04T10:53:36.999Z,304
2019-01-04T10:54:44.210Z,303
2019-01-04T10:55:51.409Z,301
2019-01-04T10:56:58.607Z,301
2019-01-04T10:58:06.967Z,301
2019-01-04T10:59:14.161Z,302
2019-01-04T11:00:21.360Z,304
2019-01-04T11:01:28.555Z,304
2019-01-04T11:02:35.753Z,304
2019-01-04T11:03:42.955Z,305
2019-01-04T11:04:49.882Z,307
2019-01-04T11:05:56.832Z,307
2019-01-04T11:07:04.026Z,307
2019-01-04T11:08:11.221Z,308
2019-01-04T11:09:18.137Z,308
2019-01-04T11:10:25.338Z,308
2019-01-04T11:11:32.528Z,309
2019-01-04T11:12:39.727Z,309
2019-01-04T11:13:46.652Z,309
2019-01-04T11:14:53.572Z,309
2019-01-04T11:16:00.763Z,309
2019-01-04T11:17:07.960Z,310
2019-01-04T11:18:15.164Z,309
2019-01-04T11:19:22.364Z,309
2019-01-04T11:20:29.564Z,310
2019-01-04T11:21:36.776Z,310
2019-01-04T11:22:43.979Z,310
2019-01-04T11:23:50.894Z,310
2019-01-04T11:24:58.088Z,310
2019-01-04T11:26:05.282Z,310
2019-01-04T11:27:12.490Z,310
2019-01-04T11:28:19.685Z,310
2019-01-04T11:29:26.887Z,310
2019-01-04T11:30:34.081Z,309
2019-01-04T11:31:41.001Z,309
2019-01-04T11:32:47.924Z,309
2019-01-04T11:33:55.139Z,310
2019-01-04T11:35:02.405Z,310
2019-01-04T11:36:09.604Z,310
2019-01-04T11:37:16.531Z,310
2019-01-04T11:38:23.729Z,310
2019-01-04T11:39:30.677Z,310
2019-01-04T11:40:37.858Z,309
2019-01-04T11:41:44.507Z,309
2019-01-04T11:42:51.429Z,309
2019-01-04T11:43:58.629Z,309
2019-01-04T11:45:05.839Z,309
2019-01-04T11:46:12.774Z,309
2019-01-04T11:47:21.156Z,309
2019-01-04T11:48:28.349Z,310
2019-01-04T11:49:35.280Z,310
2019-01-04T11:50:42.478Z,310
2019-01-04T11:51:49.405Z,310
2019-01-04T11:52:56.336Z,310
2019-01-04T11:54:03.277Z,310
2019-01-04T11:55:10.195Z,310
2019-01-04T11:56:17.116Z,309
2019-01-04T11:57:24.315Z,309
2019-01-04T11:58:31.512Z,309
2019-01-04T11:59:39.605Z,310
2019-01-04T12:00:46.850Z,310
2019-01-04T12:01:54.043Z,311
2019-01-04T12:03:01.241Z,310
2019-01-04T12:04:08.439Z,311
2019-01-04T12:05:15.630Z,310
2019-01-04T12:06:22.828Z,308
2019-01-04T12:07:30.024Z,308
2019-01-04T12:08:37.224Z,308
2019-01-04T12:09:44.421Z,308
2019-01-04T12:10:51.630Z,308
2019-01-04T12:11:58.868Z,307
2019-01-04T12:13:06.049Z,308
2019-01-04T12:14:13.245Z,307
2019-01-04T12:15:20.442Z,308
2019-01-04T12:16:27.640Z,308
2019-01-04T12:17:34.833Z,308
2019-01-04T12:18:42.065Z,309
2019-01-04T12:19:49.249Z,309
2019-01-04T12:20:56.181Z,309
2019-01-04T12:22:03.390Z,310
2019-01-04T12:23:12.240Z,310
2019-01-04T12:24:19.152Z,310
2019-01-04T12:25:26.348Z,310
2019-01-04T12:26:33.543Z,311
2019-01-04T12:27:40.741Z,310
2019-01-04T12:28:47.656Z,310
2019-01-04T12:29:54.856Z,310
2019-01-04T12:31:02.055Z,311
2019-01-04T12:32:08.986Z,311
2019-01-04T12:33:16.182Z,311
2019-01-04T12:34:23.376Z,311
2019-01-04T12:35:30.573Z,310
2019-01-04T12:36:37.495Z,310
2019-01-04T12:37:44.692Z,310
2019-01-04T12:38:51.888Z,310
2019-01-04T12:39:59.082Z,311
2019-01-04T12:41:06.007Z,311
2019-01-04T12:42:12.928Z,310
2019-01-04T12:43:19.854Z,311
2019-01-04T12:44:26.779Z,311
2019-01-04T12:45:33.976Z,310
2019-01-04T12:46:40.625Z,311
2019-01-04T12:47:47.828Z,310
2019-01-04T12:48:55.019Z,310
2019-01-04T12:50:01.976Z,310
2019-01-04T12:51:09.160Z,311
2019-01-04T12:52:16.363Z,311
2019-01-04T12:53:23.291Z,311
2019-01-04T12:54:30.494Z,311
2019-01-04T12:55:37.697Z,311
2019-01-04T12:56:44.618Z,311
2019-01-04T12:57:51.818Z,311
2019-01-04T12:58:59.013Z,311
2019-01-04T13:00:06.210Z,311
2019-01-04T13:01:13.136Z,310
2019-01-04T13:02:20.340Z,310
2019-01-04T13:03:27.541Z,311
2019-01-04T13:04:34.737Z,311
2019-01-04T13:05:41.939Z,311
2019-01-04T13:06:49.154Z,312
2019-01-04T13:07:56.352Z,311
2019-01-04T13:09:03.280Z,311
2019-01-04T13:10:10.471Z,311
2019-01-04T13:11:17.399Z,311
2019-01-04T13:12:24.597Z,311
2019-01-04T13:13:31.684Z,311
2019-01-04T13:14:38.596Z,311
2019-01-04T13:15:45.798Z,311
2019-01-04T13:16:52.987Z,311
2019-01-04T13:18:00.191Z,311
2019-01-04T13:19:07.119Z,311
2019-01-04T13:20:14.046Z,312
2019-01-04T13:21:20.974Z,312
2019-01-04T13:22:28.170Z,312
2019-01-04T13:23:35.374Z,312
2019-01-04T13:24:42.574Z,312
2019-01-04T13:25:49.500Z,311
2019-01-04T13:26:56.699Z,312
2019-01-04T13:28:03.894Z,312
2019-01-04T13:29:11.099Z,312
2019-01-04T13:30:18.302Z,311
2019-01-04T13:31:25.518Z,312
2019-01-04T13:32:32.721Z,311
2019-01-04T13:33:40.155Z,311
2019-01-04T13:34:47.340Z,312
2019-01-04T13:35:54.565Z,311
2019-01-04T13:37:01.764Z,311
2019-01-04T13:38:08.997Z,311
2019-01-04T13:39:16.189Z,311
2019-01-04T13:40:23.397Z,311
2019-01-04T13:41:30.593Z,310
2019-01-04T13:42:37.530Z,311
2019-01-04T13:43:44.457Z,311
2019-01-04T13:44:51.656Z,311
2019-01-04T13:45:58.861Z,310
2019-01-04T13:47:05.787Z,311
2019-01-04T13:48:12.989Z,310
2019-01-04T13:49:20.190Z,310
2019-01-04T13:50:27.388Z,310
2019-01-04T13:51:34.309Z,311
2019-01-04T13:52:41.506Z,310
2019-01-04T13:53:48.434Z,311
2019-01-04T13:54:55.639Z,311
2019-01-04T13:56:02.838Z,310
2019-01-04T13:57:10.030Z,311
2019-01-04T13:58:17.234Z,311
2019-01-04T13:59:24.432Z,310
2019-01-04T14:00:31.632Z,311
2019-01-04T14:01:38.837Z,311
2019-01-04T14:02:46.036Z,311
2019-01-04T14:03:53.239Z,311
2019-01-04T14:04:59.898Z,311
2019-01-04T14:06:07.124Z,311
2019-01-04T14:07:14.330Z,312
2019-01-04T14:08:21.530Z,312
2019-01-04T14:09:28.457Z,311
2019-01-04T14:10:35.668Z,311
2019-01-04T14:11:42.865Z,312
2019-01-04T14:12:50.062Z,312
2019-01-04T14:13:56.993Z,311
2019-01-04T14:15:03.915Z,312
2019-01-04T14:16:11.115Z,312
2019-01-04T14:17:18.470Z,312
2019-01-04T14:18:25.662Z,312
2019-01-04T14:19:32.867Z,312
2019-01-04T14:20:40.070Z,312
2019-01-04T14:21:46.997Z,312
2019-01-04T14:22:53.936Z,312
2019-01-04T14:24:01.136Z,312
2019-01-04T14:25:08.337Z,312
2019-01-04T14:26:15.541Z,311
2019-01-04T14:27:22.742Z,312
2019-01-04T14:28:29.667Z,311
2019-01-04T14:29:36.875Z,312
2019-01-04T14:30:43.801Z,312
2019-01-04T14:31:50.998Z,312
2019-01-04T14:32:57.937Z,312
2019-01-04T14:34:05.156Z,311
2019-01-04T14:35:12.367Z,312
2019-01-04T14:36:19.567Z,312
2019-01-04T14:37:26.767Z,312
2019-01-04T14:38:33.980Z,311
2019-01-04T14:39:40.906Z,312
2019-01-04T14:40:48.102Z,312
2019-01-04T14:41:55.316Z,312
2019-01-04T14:43:02.509Z,312
2019-01-04T14:44:09.717Z,313
2019-01-04T14:45:16.919Z,312
2019-01-04T14:46:24.116Z,313
2019-01-04T14:47:31.044Z,313
2019-01-04T14:48:38.254Z,312
2019-01-04T14:49:45.455Z,313
2019-01-04T14:50:52.652Z,313
2019-01-04T14:51:59.847Z,312
2019-01-04T14:53:07.960Z,312
2019-01-04T14:54:14.889Z,313
2019-01-04T14:55:22.088Z,312
2019-01-04T14:56:29.307Z,313
2019-01-04T14:57:36.272Z,312
2019-01-04T14:58:58.118Z,313
2019-01-04T15:00:05.319Z,312
2019-01-04T15:01:12.519Z,312
2019-01-04T15:02:19.719Z,313
2019-01-04T15:03:26.916Z,313
2019-01-04T15:04:34.142Z,313
2019-01-04T15:05:41.336Z,313
2019-01-04T15:06:48.260Z,313
2019-01-04T15:07:55.459Z,312
2019-01-04T15:09:02.664Z,313
2019-01-04T15:10:09.851Z,313
2019-01-04T15:11:16.771Z,313
2019-01-04T15:12:23.976Z,313
2019-01-04T15:13:30.901Z,313
2019-01-04T15:14:38.099Z,312
2019-01-04T15:15:45.022Z,313
2019-01-04T15:16:52.226Z,313
2019-01-04T15:17:59.417Z,313
2019-01-04T15:19:06.615Z,313
2019-01-04T15:20:13.813Z,313
2019-01-04T15:21:21.015Z,313
2019-01-04T15:22:28.219Z,312
2019-01-04T15:23:35.418Z,312
2019-01-04T15:24:42.619Z,313
2019-01-04T15:25:49.822Z,313